Pagrindinis puslapis
METAR-TAF:

METAR-TAF

Oro uostai :

Stenlis, Folklando

platuma: 51-49S, ilguma: 058-27W, Aukštis: 74 m

Dabartinis oras

Ataskaita buvo paskelbta 1 valandą ir 1 minutes, ne 01:50 UTC
Vėjas 10 kt iš Vakarų
Temperatūra 6°C
Drėgmė 100%
Slėgis 1013 hPa
Matomumas 10 km arba daugiau
Išsisklaidę debesys ne aukštis 1000 ft
Išsisklaidę debesys ne aukštis 2000 ft

METAR: EGYP 010150Z 27010KT 9999 SCT010 SCT020 06/06 Q1013

Laikas: 23:51 (02:51 UTC)

Prognozė

Ataskaita buvo paskelbta 1 valandą ir 30 minutes, ne 01:21 UTC
Prognozė galioja nuo 01 metu 03 UTC su 01 metu 21 UTC
Vėjas 8 kt iš Vakarų
Matomumas 10 km arba daugiau
Mažai debesys ne aukštis 2000 ft
Tikimybė 30% :
Laikinai
nuo 01 metu 03 UTC su 01 metu 14 UTC
Matomumas: 5000 m
Išsisklaidę debesys ne aukštis 600 ft
rūkana

TAF: EGYP 010121Z 0103/0121 26008KT 9999 FEW020 PROB30 TEMPO 0103/0114 5000 BR SCT006

Orai ataskaitas ir orų prognozės (METAR, TAF).

turimą stotys yra geltonos ir raudonos taškus žemėlapyje.

Perkelti pele per norėdami pamatyti stoties vardą.

Tada spustelėkite, norėdami matyti oro stebėjimo ir prognozės.

Norėdami pakeisti žemėlapį: spustelėkite ant žalios mygtukų su juodo kryžiaus žemyn,; žalią mygtuką su brūkšneliu, jei norite nutolinti; arba žalių rodyklių gretimoms žemėlapius.


METAR-TAF: